Rankings de siempre
Mejores tiempos personales válidos de equipo a través de todos los eventos y temporadas. Cada equipo aparece una vez por división.
Busca por nombre y abre la página donde está clasificado este récord de división.
137,321 equipos clasificados
| Pos. | Pos. AG | Equipo | Nacionalidad | Categoría de edad | TiempoMejor tiempo | Diferencia |
|---|---|---|---|---|---|---|
| 132351 | #47609 | Louie Andre Salcedo & Janus DielPHI · M 30-34 · AG #47609 | PHI | M 30-34 | 1:46:43 | +59:03 |
| 132352 | #484 | Dave Armstrong & Gary WhiteleyGBR · M 55-59 · AG #484 | GBR | M 55-59 | 1:46:43 | +59:03 |
| 132353 | #15548 | Wesley Gorman & Dewald KotzeRSA · M 35-39 · AG #15548 | RSA | M 35-39 | 1:46:43 | +59:03 |
| 132354 | #16959 | Aditya Jayanti & Riwaz AwasthiUSA · M 25-29 · AG #16959 | USA | M 25-29 | 1:46:43 | +59:03 |
| 132355 | #47610 | Diego Armando Toro Cruz & Ivan Arellano SaldañaMEX · M 30-34 · AG #47610 | MEX | M 30-34 | 1:46:43 | +59:03 |
| 132356 | #47611 | Paul Kent & Steven HowsonGBR · M 30-34 · AG #47611 | GBR | M 30-34 | 1:46:43 | +59:03 |
| 132357 | #3008 | Fasel Jebran & Frank SchnipperGER · M 50-54 · AG #3008 | GER | M 50-54 | 1:46:43 | +59:03 |
| 132358 | -- | Nirushan Thurairajah & Aleks PuveenthiranM MU29 | -- | M MU29 | 1:46:43 | +59:03 |
| 132359 | -- | Aj RICHARDSON & Davy TIONED · M MU29 | NED | M MU29 | 1:46:43 | +59:03 |
| 132360 | #47612 | Clement Lim & Benn LimSIN · M 30-34 · AG #47612 | SIN | M 30-34 | 1:46:43 | +59:03 |
| 132361 | #47613 | Jose Noel Alvarez Bullon & Gabriel Sandoval CovarrubiasM 30-34 · AG #47613 | -- | M 30-34 | 1:46:44 | +59:04 |
| 132362 | #16960 | Jerome Rohe & Cedric DaunkeGER · M 25-29 · AG #16960 | GER | M 25-29 | 1:46:44 | +59:04 |
| 132363 | #47615 | Mike Adendorff & Juan RoestorffRSA · M 30-34 · AG #47615 | RSA | M 30-34 | 1:46:44 | +59:04 |
| 132364 | #47616 | Mark Tieman & Jordi BesNED · M 30-34 · AG #47616 | NED | M 30-34 | 1:46:44 | +59:04 |
| 132365 | #47617 | Selwyn Young & Dean GovenderRSA · M 30-34 · AG #47617 | RSA | M 30-34 | 1:46:44 | +59:04 |
| 132366 | #18843 | Satoshi Murakawa & Hirokazu MoriJPN · M 40-44 · AG #18843 | JPN | M 40-44 | 1:46:44 | +59:04 |
| 132367 | #47618 | Sebastian Lau & Charles LyeSIN · M 30-34 · AG #47618 | SIN | M 30-34 | 1:46:44 | +59:04 |
| 132368 | #4153 | Ben Davies & Sean O'ConnorGBR · M 45-49 · AG #4153 | GBR | M 45-49 | 1:46:44 | +59:04 |
| 132369 | #18844 | Giovanni Linnenbank & Erwin De KoningNED · M 40-44 · AG #18844 | NED | M 40-44 | 1:46:45 | +59:05 |
| 132370 | #18845 | Robert Jones & Don JonesUSA · M 40-44 · AG #18845 | USA | M 40-44 | 1:46:45 | +59:05 |
| 132371 | #47619 | Eric Santos & Isaiah JohnsonUSA · M 30-34 · AG #47619 | USA | M 30-34 | 1:46:45 | +59:05 |
| 132372 | #4154 | Adrian Bryan & Gavin Belton-RoseGBR · M 45-49 · AG #4154 | GBR | M 45-49 | 1:46:45 | +59:05 |
| 132373 | #15549 | Nazeri Bin Nasaruddin & Narwanash Bin KamaruzamanMAS · M 35-39 · AG #15549 | MAS | M 35-39 | 1:46:46 | +59:06 |
| 132374 | #16961 | Luiz Asanome & Phillip YeeM 25-29 · AG #16961 | -- | M 25-29 | 1:46:46 | +59:06 |
| 132375 | #18846 | Mark Ewald & Carlos CardosoPOR · M 40-44 · AG #18846 | POR | M 40-44 | 1:46:46 | +59:06 |
Página 5,295 de 5,493